Jane, Missouri
Current Conditions -  °F | °C
As of 2:35 AM on Monday 22 Dec 2014 (Local Time) from KVBT Reporting Station
Overcast Overcast  
Wind Chill: 42°   Ceiling: 1000
Heat Index: 45°   Visibility: 10mi
Dew Point: 39°   Wind: 5mph
Humidity: 81%   Direction: 170°S
Pressure: 29.71"   Gusts: NA
Location:  36.5706°N, 94.342°W
Report Text: KVBT 220835Z AUTO 17004KT 10SM OVC010 07/04 A2971 RMK AO1 P0001
Loading
Personal Weather Stations






























Interactive Weather Map New forecast layout! Learn more

10-Day Weather Forecast

Advertisements
Track Severe Weather on mobile